createdAt,value
2022-08-16T00:00:22.439Z,5.10
2022-08-16T00:03:13.256Z,4.72
2022-08-16T00:06:00.158Z,5.00
2022-08-16T00:08:45.881Z,4.80
2022-08-16T00:11:31.564Z,5.10
2022-08-16T00:14:22.471Z,5.03
2022-08-16T00:17:18.975Z,5.15
2022-08-16T00:20:12.478Z,5.40
2022-08-16T00:22:58.452Z,5.63
2022-08-16T00:26:35.652Z,5.93
2022-08-16T00:28:54.854Z,5.88
2022-08-16T00:31:58.581Z,6.13
2022-08-16T00:34:52.941Z,6.30
2022-08-16T00:37:58.397Z,5.97
2022-08-16T00:40:50.780Z,6.70
2022-08-16T00:43:42.617Z,6.18
2022-08-16T00:46:36.251Z,6.28
2022-08-16T00:49:22.573Z,6.45
2022-08-16T00:52:30.311Z,6.78
2022-08-16T00:55:13.905Z,7.10
2022-08-16T00:58:01.094Z,6.80
2022-08-16T01:00:53.787Z,6.90
2022-08-16T01:03:42.729Z,6.85
2022-08-16T01:06:40.424Z,6.80
2022-08-16T01:09:42.996Z,7.10
2022-08-16T01:12:28.607Z,6.78
2022-08-16T01:15:15.100Z,7.50
2022-08-16T01:18:02.891Z,7.95
2022-08-16T01:20:55.730Z,7.20
2022-08-16T01:23:57.980Z,7.05
2022-08-16T01:26:49.422Z,6.65
2022-08-16T01:29:58.007Z,7.25
2022-08-16T01:32:45.196Z,6.93
2022-08-16T01:36:00.508Z,7.07
2022-08-16T01:38:53.217Z,6.88
2022-08-16T01:41:44.997Z,7.68
2022-08-16T01:44:38.249Z,7.90
2022-08-16T01:47:23.876Z,7.32
2022-08-16T01:50:43.275Z,8.35
2022-08-16T01:53:15.188Z,8.07
2022-08-16T01:56:24.198Z,8.20
2022-08-16T01:59:15.854Z,8.43
2022-08-16T02:02:04.820Z,8.05
2022-08-16T02:05:11.932Z,8.07
2022-08-16T02:07:58.297Z,8.52
2022-08-16T02:10:43.855Z,9.25
2022-08-16T02:13:32.797Z,10.13
2022-08-16T02:16:19.936Z,12.73
2022-08-16T02:19:16.188Z,10.50
2022-08-16T02:22:09.003Z,10.07
2022-08-16T02:25:14.906Z,10.63
2022-08-16T02:28:00.463Z,10.30
2022-08-16T02:30:50.501Z,10.32
2022-08-16T02:33:43.843Z,10.25
2022-08-16T02:36:42.500Z,10.48
2022-08-16T02:39:35.404Z,10.43
2022-08-16T02:42:21.905Z,10.70
2022-08-16T02:45:07.847Z,11.20
2022-08-16T02:48:01.818Z,10.90
2022-08-16T02:51:11.031Z,10.82
2022-08-16T02:53:58.768Z,11.73
2022-08-16T02:56:47.852Z,11.18
2022-08-16T02:59:39.889Z,10.82
2022-08-16T03:02:31.906Z,11.32
2022-08-16T03:05:18.974Z,11.55
2022-08-16T03:08:05.430Z,12.98
2022-08-16T03:11:16.968Z,11.63
2022-08-16T03:14:08.469Z,11.73
2022-08-16T03:16:59.202Z,11.98
2022-08-16T03:19:56.542Z,11.63
2022-08-16T03:22:50.091Z,12.23
2022-08-16T03:25:44.112Z,11.55
2022-08-16T03:28:30.509Z,11.82
2022-08-16T03:31:16.974Z,11.93
2022-08-16T03:34:02.878Z,13.48
2022-08-16T03:36:48.405Z,12.27
2022-08-16T03:39:35.962Z,12.43
2022-08-16T03:42:28.448Z,13.40
2022-08-16T03:45:15.880Z,13.15
2022-08-16T03:48:02.832Z,13.13
2022-08-16T03:50:59.614Z,12.32
2022-08-16T03:53:46.476Z,12.82
2022-08-16T03:56:57.926Z,12.63
2022-08-16T03:59:46.653Z,12.70
2022-08-16T04:02:34.554Z,12.65
2022-08-16T04:05:24.962Z,14.13
2022-08-16T04:08:22.915Z,14.48
2022-08-16T04:11:12.081Z,13.30
2022-08-16T04:14:32.380Z,14.70
2022-08-16T04:17:07.918Z,16.95
2022-08-16T04:19:58.232Z,16.02
2022-08-16T04:22:45.318Z,16.25
2022-08-16T04:25:35.201Z,15.32
2022-08-16T04:28:29.237Z,14.10
2022-08-16T04:31:29.484Z,15.27
2022-08-16T04:34:17.337Z,15.15
2022-08-16T04:37:07.084Z,15.85
2022-08-16T04:39:57.616Z,15.95
2022-08-16T04:42:45.837Z,14.90
2022-08-16T04:45:35.601Z,13.93
2022-08-16T04:48:34.014Z,14.20
2022-08-16T04:51:22.226Z,13.80
2022-08-16T04:54:10.383Z,14.40
2022-08-16T04:56:57.007Z,14.93
2022-08-16T04:59:43.658Z,14.75
2022-08-16T05:02:42.252Z,14.88
2022-08-16T05:05:32.997Z,15.38
2022-08-16T05:08:28.042Z,15.30
2022-08-16T05:11:18.836Z,14.40
2022-08-16T05:14:07.507Z,14.60
2022-08-16T05:16:56.972Z,13.95
2022-08-16T05:19:46.525Z,14.55
2022-08-16T05:22:44.453Z,14.45
2022-08-16T05:25:41.382Z,15.07
2022-08-16T05:28:39.050Z,14.18
2022-08-16T05:31:29.625Z,14.43
2022-08-16T05:34:19.833Z,13.73
2022-08-16T05:37:06.619Z,13.90
2022-08-16T05:39:55.407Z,14.10
2022-08-16T05:42:47.654Z,15.80
2022-08-16T05:45:36.468Z,14.73
2022-08-16T05:48:26.717Z,14.27
2022-08-16T05:51:35.320Z,13.65
2022-08-16T05:54:24.989Z,14.00
2022-08-16T05:57:14.796Z,12.82
2022-08-16T06:00:03.417Z,14.73
2022-08-16T06:02:58.071Z,12.65
2022-08-16T06:06:13.965Z,11.77
2022-08-16T06:09:15.473Z,12.40
2022-08-16T06:12:03.912Z,11.15
2022-08-16T06:14:49.531Z,11.45
2022-08-16T06:17:43.855Z,11.20
2022-08-16T06:20:36.815Z,12.88
2022-08-16T06:23:41.654Z,10.32
2022-08-16T06:26:34.702Z,9.23
2022-08-16T06:29:24.387Z,9.57
2022-08-16T06:32:11.523Z,10.02
2022-08-16T06:35:15.633Z,9.80
2022-08-16T06:38:04.643Z,8.63
2022-08-16T06:40:51.220Z,6.85
2022-08-16T06:43:37.809Z,7.72
2022-08-16T06:46:34.203Z,7.10
2022-08-16T06:49:26.479Z,8.18
2022-08-16T06:52:55.483Z,6.90
2022-08-16T06:55:19.797Z,6.53
2022-08-16T06:58:22.065Z,9.68
2022-08-16T07:01:15.670Z,6.32
2022-08-16T07:04:10.484Z,7.03
2022-08-16T07:06:57.841Z,5.90
2022-08-16T07:09:46.209Z,6.30
2022-08-16T07:12:36.866Z,5.60
2022-08-16T07:15:34.498Z,6.03
2022-08-16T07:18:21.360Z,7.95
2022-08-16T07:21:13.013Z,6.90
2022-08-16T07:24:06.144Z,6.40
2022-08-16T07:26:53.241Z,5.97
2022-08-16T07:29:40.849Z,9.70
2022-08-16T07:32:29.122Z,7.57
2022-08-16T07:35:16.141Z,6.70
2022-08-16T07:38:01.354Z,6.50
2022-08-16T07:41:08.137Z,6.18
2022-08-16T07:43:55.338Z,5.78
2022-08-16T07:46:43.519Z,6.82
2022-08-16T07:49:36.690Z,5.20
2022-08-16T07:52:40.111Z,5.70
2022-08-16T07:55:25.597Z,5.20
2022-08-16T07:58:18.283Z,6.38
2022-08-16T08:01:19.465Z,5.40
2022-08-16T08:04:14.827Z,7.40
2022-08-16T08:07:08.856Z,6.30
2022-08-16T08:09:55.503Z,5.57
2022-08-16T08:12:44.256Z,6.80
2022-08-16T08:15:34.374Z,6.70
2022-08-16T08:18:29.381Z,5.95
2022-08-16T08:21:19.322Z,7.00
2022-08-16T08:24:12.493Z,7.03
2022-08-16T08:27:02.247Z,6.38
2022-08-16T08:30:50.570Z,6.25
2022-08-16T08:33:01.824Z,5.85
2022-08-16T08:36:02.166Z,6.20
2022-08-16T08:38:47.810Z,7.10
2022-08-16T08:41:37.117Z,6.65
2022-08-16T08:44:28.595Z,5.80
2022-08-16T08:47:16.614Z,5.88
2022-08-16T08:50:02.077Z,5.68
2022-08-16T08:52:52.791Z,5.70
2022-08-16T08:55:38.407Z,4.60
2022-08-16T08:58:24.914Z,5.35
2022-08-16T09:01:42.999Z,5.40
2022-08-16T09:04:47.710Z,5.78
2022-08-16T09:08:00.271Z,5.38
2022-08-16T09:11:02.280Z,6.60
2022-08-16T09:13:49.418Z,6.22
2022-08-16T09:17:01.481Z,5.25
2022-08-16T09:19:44.943Z,5.68
2022-08-16T09:22:32.171Z,5.55
2022-08-16T09:25:21.848Z,5.47
2022-08-16T09:28:12.233Z,5.78
2022-08-16T09:31:24.611Z,7.20
2022-08-16T09:34:11.183Z,6.30
2022-08-16T09:36:58.452Z,7.05
2022-08-16T09:39:50.123Z,6.38
2022-08-16T09:42:56.616Z,5.78
2022-08-16T09:45:43.231Z,6.30
2022-08-16T09:48:43.978Z,7.20
2022-08-16T09:51:30.834Z,6.47
2022-08-16T09:54:23.484Z,6.60
2022-08-16T09:57:12.112Z,6.53
2022-08-16T10:00:00.739Z,6.15
2022-08-16T10:02:56.637Z,7.38
2022-08-16T10:05:42.304Z,5.50
2022-08-16T10:08:28.428Z,6.10
2022-08-16T10:11:33.253Z,5.75
2022-08-16T10:14:36.455Z,5.20
2022-08-16T10:17:22.606Z,4.93
2022-08-16T10:20:11.452Z,5.60
2022-08-16T10:23:07.323Z,5.60
2022-08-16T10:27:16.547Z,6.22
2022-08-16T10:28:58.718Z,8.20
2022-08-16T10:31:46.385Z,5.68
2022-08-16T10:34:32.843Z,5.30
2022-08-16T10:37:18.577Z,4.85
2022-08-16T10:40:28.977Z,5.65
2022-08-16T10:43:18.300Z,4.72
2022-08-16T10:46:39.706Z,4.60
2022-08-16T10:49:12.420Z,4.90
2022-08-16T10:52:01.716Z,4.53
2022-08-16T10:57:56.061Z,4.07
2022-08-16T11:00:43.542Z,3.67
2022-08-16T11:03:42.326Z,3.55
2022-08-16T11:06:29.586Z,4.15
2022-08-16T11:09:24.571Z,4.00
2022-08-16T11:12:13.874Z,4.00
2022-08-16T11:15:17.375Z,4.45
2022-08-16T11:21:09.131Z,4.07
2022-08-16T11:24:39.595Z,4.15
2022-08-16T11:27:23.239Z,4.10
2022-08-16T11:30:19.935Z,5.38
2022-08-16T11:33:10.855Z,4.40
2022-08-16T11:39:02.556Z,4.05
2022-08-16T11:41:51.523Z,3.80
2022-08-16T11:44:45.291Z,3.50
2022-08-16T11:47:38.715Z,3.58
2022-08-16T11:50:24.374Z,4.10
2022-08-16T11:53:10.760Z,3.63
2022-08-16T11:55:57.276Z,3.78
2022-08-16T11:58:45.568Z,3.95
2022-08-16T12:01:44.143Z,4.60
2022-08-16T12:04:41.375Z,3.78
2022-08-16T12:07:29.042Z,3.95
2022-08-16T12:10:19.314Z,4.05
2022-08-16T12:13:06.158Z,4.55
2022-08-16T12:15:56.319Z,4.35
2022-08-16T12:18:41.375Z,4.65
2022-08-16T12:21:35.792Z,4.90
2022-08-16T12:24:34.276Z,4.20
2022-08-16T12:27:25.288Z,4.10
2022-08-16T12:30:26.255Z,3.97
2022-08-16T12:33:16.253Z,3.70
2022-08-16T12:36:13.242Z,3.50
2022-08-16T12:38:58.855Z,3.80
2022-08-16T12:41:46.216Z,3.15
2022-08-16T12:44:32.718Z,3.38
2022-08-16T12:47:37.065Z,3.30
2022-08-16T12:50:23.105Z,3.22
2022-08-16T12:53:20.561Z,3.40
2022-08-16T12:56:07.773Z,3.25
2022-08-16T12:58:56.931Z,3.30
2022-08-16T13:01:46.023Z,3.10
2022-08-16T13:04:33.514Z,3.50
2022-08-16T13:07:19.254Z,3.75
2022-08-16T13:10:20.700Z,3.17
2022-08-16T13:13:09.212Z,3.92
2022-08-16T13:16:02.067Z,3.90
2022-08-16T13:18:52.573Z,3.78
2022-08-16T13:21:40.009Z,3.80
2022-08-16T13:24:26.722Z,3.38
2022-08-16T13:27:12.042Z,4.32
2022-08-16T13:29:59.252Z,5.00
2022-08-16T13:32:45.511Z,3.70
2022-08-16T13:35:34.551Z,3.58
2022-08-16T13:38:24.352Z,4.13
2022-08-16T13:41:12.512Z,3.43
2022-08-16T13:44:00.395Z,3.30
2022-08-16T13:46:47.564Z,3.33
2022-08-16T13:49:34.425Z,3.67
2022-08-16T13:52:21.700Z,3.35
2022-08-16T13:55:17.831Z,4.20
2022-08-16T13:58:37.265Z,3.35
2022-08-16T14:01:09.798Z,3.60
2022-08-16T14:03:56.594Z,3.45
2022-08-16T14:06:41.925Z,3.70
2022-08-16T14:09:32.271Z,3.60
2022-08-16T14:12:28.605Z,3.28
2022-08-16T14:15:15.934Z,3.10
2022-08-16T14:18:16.979Z,3.78
2022-08-16T14:21:05.946Z,3.85
2022-08-16T14:23:53.750Z,3.10
2022-08-16T14:26:42.911Z,3.30
2022-08-16T14:29:32.083Z,3.65
2022-08-16T14:32:33.664Z,2.90
2022-08-16T14:35:36.875Z,4.07
2022-08-16T14:38:39.245Z,3.45
2022-08-16T14:41:25.129Z,3.20
2022-08-16T14:44:10.569Z,3.00
2022-08-16T14:46:56.465Z,3.00
2022-08-16T14:49:42.692Z,3.22
2022-08-16T14:52:54.203Z,3.03
2022-08-16T14:55:36.935Z,3.10
2022-08-16T14:58:34.710Z,3.70
2022-08-16T15:01:23.876Z,3.28
2022-08-16T15:04:39.607Z,3.70
2022-08-16T15:07:25.925Z,3.58
2022-08-16T15:10:21.643Z,3.47
2022-08-16T15:13:10.880Z,3.67
2022-08-16T15:16:02.506Z,3.20
2022-08-16T15:18:49.366Z,3.30
2022-08-16T15:21:35.804Z,3.10
2022-08-16T15:24:22.448Z,3.50
2022-08-16T15:27:10.632Z,3.33
2022-08-16T15:29:57.729Z,3.30
2022-08-16T15:32:43.556Z,3.80
2022-08-16T15:35:31.563Z,3.50
2022-08-16T15:38:56.824Z,3.05
2022-08-16T15:41:48.073Z,3.50
2022-08-16T15:44:45.087Z,3.17
2022-08-16T15:47:38.805Z,3.70
2022-08-16T15:50:24.783Z,3.47
2022-08-16T15:53:18.816Z,3.65
2022-08-16T15:56:05.660Z,3.70
2022-08-16T15:58:55.638Z,3.20
2022-08-16T16:01:41.618Z,3.58
2022-08-16T16:04:28.639Z,3.88
2022-08-16T16:07:14.320Z,3.80
2022-08-16T16:10:01.569Z,3.85
2022-08-16T16:12:51.461Z,3.75
2022-08-16T16:15:46.672Z,3.55
2022-08-16T16:18:34.231Z,3.83
2022-08-16T16:21:20.300Z,3.70
2022-08-16T16:24:21.307Z,3.35
2022-08-16T16:27:09.600Z,3.30
2022-08-16T16:29:57.848Z,3.25
2022-08-16T16:32:47.835Z,3.20
2022-08-16T16:35:36.813Z,3.30
2022-08-16T16:38:26.888Z,2.88
2022-08-16T16:41:13.796Z,2.88
2022-08-16T16:44:01.163Z,3.30
2022-08-16T16:46:56.655Z,3.03
2022-08-16T16:49:43.700Z,3.30
2022-08-16T16:52:44.213Z,3.25
2022-08-16T16:55:30.616Z,3.10
2022-08-16T16:58:36.629Z,2.97
2022-08-16T17:01:41.539Z,3.00
2022-08-16T17:04:38.021Z,2.65
2022-08-16T17:07:24.118Z,2.80
2022-08-16T17:10:10.427Z,2.72
2022-08-16T17:13:06.671Z,2.78
2022-08-16T17:15:54.001Z,2.90
2022-08-16T17:19:17.094Z,2.60
2022-08-16T17:21:48.140Z,2.75
2022-08-16T17:24:40.052Z,3.05
2022-08-16T17:27:32.656Z,3.00
2022-08-16T17:30:45.069Z,3.00
2022-08-16T17:33:37.044Z,2.72
2022-08-16T17:36:35.860Z,3.00
2022-08-16T17:39:23.736Z,2.92
2022-08-16T17:42:18.143Z,2.83
2022-08-16T17:45:03.894Z,2.72
2022-08-16T17:47:50.087Z,2.75
2022-08-16T17:50:36.015Z,2.95
2022-08-16T17:53:23.495Z,2.97
2022-08-16T17:56:10.397Z,2.90
2022-08-16T17:58:56.077Z,3.13
2022-08-16T18:01:42.455Z,3.03
2022-08-16T18:04:48.028Z,2.80
2022-08-16T18:07:35.297Z,2.85
2022-08-16T18:10:32.699Z,2.95
2022-08-16T18:13:19.038Z,3.03
2022-08-16T18:16:04.613Z,2.97
2022-08-16T18:18:50.174Z,2.78
2022-08-16T18:21:54.608Z,2.78
2022-08-16T18:24:39.922Z,3.15
2022-08-16T18:27:27.384Z,3.13
2022-08-16T18:30:17.482Z,3.03
2022-08-16T18:33:02.707Z,3.70
2022-08-16T18:35:48.010Z,3.72
2022-08-16T18:38:34.825Z,3.38
2022-08-16T18:41:25.212Z,3.47
2022-08-16T18:44:25.209Z,4.40
2022-08-16T18:47:13.395Z,4.72
2022-08-16T18:50:00.661Z,4.97
2022-08-16T18:52:54.574Z,5.35
2022-08-16T18:55:45.258Z,5.53
2022-08-16T18:58:33.809Z,6.65
2022-08-16T19:01:20.608Z,7.70
2022-08-16T19:04:06.289Z,9.65
2022-08-16T19:07:11.633Z,7.82
2022-08-16T19:09:56.924Z,9.80
2022-08-16T19:12:42.730Z,10.55
2022-08-16T19:15:28.901Z,14.18
2022-08-16T19:18:14.889Z,9.40
2022-08-16T19:21:00.293Z,8.35
2022-08-16T19:23:46.061Z,7.45
2022-08-16T19:26:33.313Z,10.07
2022-08-16T19:29:18.918Z,12.43
2022-08-16T19:32:04.934Z,10.88
2022-08-16T19:34:52.035Z,10.32
2022-08-16T19:37:46.674Z,10.80
2022-08-16T19:40:38.420Z,9.57
2022-08-16T19:43:24.201Z,12.07
2022-08-16T19:46:09.672Z,10.57
2022-08-16T19:48:55.127Z,11.77
2022-08-16T19:51:40.705Z,13.02
2022-08-16T19:54:26.143Z,11.25
2022-08-16T19:57:12.912Z,9.55
2022-08-16T19:59:58.963Z,10.35
2022-08-16T20:02:51.120Z,14.52
2022-08-16T20:05:36.383Z,12.55
2022-08-16T20:08:22.402Z,12.80
2022-08-16T20:11:07.897Z,16.77
2022-08-16T20:13:53.304Z,13.52
2022-08-16T20:16:39.716Z,26.20
2022-08-16T20:19:27.660Z,18.55
2022-08-16T20:22:35.614Z,15.38
2022-08-16T20:25:28.704Z,13.70
2022-08-16T20:28:15.242Z,14.95
2022-08-16T20:31:21.044Z,13.45
2022-08-16T20:34:06.892Z,13.50
2022-08-16T20:36:51.976Z,15.43
2022-08-16T20:39:38.709Z,16.92
2022-08-16T20:42:27.634Z,23.15
2022-08-16T20:45:13.255Z,26.02
2022-08-16T20:47:58.915Z,21.05
2022-08-16T20:50:45.267Z,21.85
2022-08-16T20:53:30.695Z,24.05
2022-08-16T20:56:16.424Z,25.15
2022-08-16T20:59:01.958Z,27.67
2022-08-16T21:01:50.249Z,25.42
2022-08-16T21:04:36.510Z,22.13
2022-08-16T21:07:22.012Z,16.75
2022-08-16T21:10:07.901Z,17.65
2022-08-16T21:12:56.594Z,18.38
2022-08-16T21:15:42.322Z,16.80
2022-08-16T21:18:28.041Z,30.50
2022-08-16T21:21:13.742Z,25.20
2022-08-16T21:23:59.401Z,22.60
2022-08-16T21:26:53.854Z,20.10
2022-08-16T21:29:43.459Z,18.75
2022-08-16T21:32:35.718Z,17.95
2022-08-16T21:35:21.622Z,19.15
2022-08-16T21:38:29.221Z,20.77
2022-08-16T21:41:13.249Z,18.52
2022-08-16T21:43:58.598Z,18.92
2022-08-16T21:46:44.461Z,16.13
2022-08-16T21:49:29.943Z,14.95
2022-08-16T21:52:26.320Z,15.02
2022-08-16T21:55:12.492Z,17.58
2022-08-16T21:57:58.237Z,19.27
2022-08-16T22:00:45.229Z,18.63
2022-08-16T22:03:33.788Z,15.40
2022-08-16T22:06:19.377Z,16.83
2022-08-16T22:09:07.015Z,19.30
2022-08-16T22:11:52.320Z,18.83
2022-08-16T22:14:38.790Z,21.35
2022-08-16T22:17:24.393Z,20.30
2022-08-16T22:20:11.053Z,26.52
2022-08-16T22:23:11.591Z,24.08
2022-08-16T22:25:57.421Z,18.98
2022-08-16T22:28:46.115Z,18.33
2022-08-16T22:31:32.197Z,19.70
2022-08-16T22:34:17.661Z,17.50
2022-08-16T22:37:03.072Z,18.23
2022-08-16T22:39:48.540Z,19.48
2022-08-16T22:42:33.900Z,19.08
2022-08-16T22:45:20.293Z,16.17
2022-08-16T22:48:06.089Z,15.73
2022-08-16T22:50:51.561Z,17.83
2022-08-16T22:53:37.367Z,18.27
2022-08-16T22:56:24.321Z,17.02
2022-08-16T22:59:09.985Z,15.88
2022-08-16T23:01:55.183Z,15.82
2022-08-16T23:04:40.686Z,13.73
2022-08-16T23:07:26.181Z,13.65
2022-08-16T23:10:11.735Z,14.27
2022-08-16T23:12:59.608Z,13.40
2022-08-16T23:15:48.237Z,14.00
2022-08-16T23:18:37.690Z,14.00
2022-08-16T23:21:23.987Z,14.70
2022-08-16T23:24:12.209Z,20.77
2022-08-16T23:26:57.867Z,17.55
2022-08-16T23:29:43.209Z,15.18
2022-08-16T23:32:28.545Z,14.82
2022-08-16T23:35:16.346Z,13.73
2022-08-16T23:38:03.473Z,14.27
2022-08-16T23:40:49.949Z,12.68
2022-08-16T23:43:41.637Z,13.60
2022-08-16T23:49:59.557Z,16.52
2022-08-16T23:52:19.261Z,13.57
2022-08-16T23:55:26.296Z,13.38
2022-08-16T23:58:14.499Z,13.80
